If you wish to contribute or participate in the discussions about articles you are invited to join SKYbrary as a registered user

 Actions

Inverness Airport

From SKYbrary Wiki

EGPE
Airport
ICAO: EGPE – IATA: INV
Summary
Name Inverness Airport
Region Europe
Territory United Kingdom GB.gif
Location Dalcross, Scotland
Serving Inverness
Elevation 9.144 m
30 ft9.144 m
Coordinates 57° 32' 33.00" N, 4° 2' 51.00" W
Runways
Designator Length Width Surface ROPS
5/23 1887 m6,190.945 ft
46 m150.919 ft
ASP yes/yes
12/30 700 m2,296.588 ft
18 m59.055 ft
ASP yes/yes


METAR
Observation EGPE 231050Z 20008KT 9999 FEW010 09/06 Q0996
Station Inverness / Dalcross
Date/Time 23 October 2020 10:50:00
Wind direction 200°
Wind speed 08 kts
Lowest cloud amount few clouds
Temperature 9°C
Dew point 6°C
Humidity 81%
QNH 996 hPa
Weather condition n/a

Inverness Airport

ICAO: EGPE IATA: INV

Description

Small regional airport serving Inverness and the Central Highlands of Scotland.

Climatology

Temperate Marine climate/Oceanic climate (Köppen climate classification Cfb). Moderately cool summer and comparatively warm winter with a temperature range of only 14°C57.2 °F
287.15 K
516.87 °R
. Prevailing south-westerly winds from the Atlantic Ocean.

Maps

Terrain

Loading map...

Airport Layout

Loading map...


Accidents & Serious Incidents at or in vicinity of EGPE

None on SKYbrary